Terminal Aerodrome Forecast
Issued by NWS

Home | Current Version | Previous Version | Text Only | Print | Product List | Glossary On
Versions: 1 2 3 4 5 6 7 8 9 10 11 12
734
FTUS43 KSGF 291120
TAFBBG
TAF
KBBG 291120Z 2912/3012 34005KT P6SM SKC
     FM291500 35012KT P6SM SKC
     FM300000 34004KT P6SM SKC=

USA.gov is the U.S. government's official web portal to all federal, state and local government web resources and services.